Flight Briefing for CPX674

Departure Arrival
Lynden Pindling International Airport (MYNN)
Click to view FAA NOTAMS
Grand Bahama International Airport (MYGF)
Click to view FAA NOTAMS
Departure Time Arrival Time
N/A N/A
Aircraft Distance
SF340AF 113nm
Departure METAR Arrival METAR
MYNN 260000Z 11006KT 9999 FEW020 24/20 A3005 MYGF 260000Z 12006KT 9999 FEW030 23/20 A3003
Suggested Route
PEACH BR65V ZFP


View recent IFR Routes data
Notes



Charts and Procedures

Charts for MYNN
No chart available
Charts for MYGF
No chart available

Windy.com Weather Map